Time,TemperatureF,DewpointF,PressureIn,WindDirection,WindDirectionDegrees,WindSpeedMPH,WindSpeedGustMPH,Humidity,HourlyPrecipIn,Conditions,Clouds,dailyrainin,SoftwareType,DateUTC
2013-02-16 00:09:00,45.5,9.0,30.31,North,349,9.0,23.0,22,0.00,,,0.00,weatherlink.com 1.10,2013-02-16 08:09:00,
2013-02-16 00:24:00,45.3,9.0,30.31,NE,48,13.0,26.0,23,0.00,,,0.00,weatherlink.com 1.10,2013-02-16 08:24:00,
2013-02-16 00:39:00,45.1,10.0,30.30,North,5,18.0,23.0,24,0.00,,,0.00,weatherlink.com 1.10,2013-02-16 08:39:00,
2013-02-16 00:54:00,44.9,11.0,30.31,East,82,9.0,22.0,25,0.00,,,0.00,weatherlink.com 1.10,2013-02-16 08:54:00,
2013-02-16 01:09:00,44.4,10.0,30.30,NE,42,13.0,25.0,25,0.00,,,0.00,weatherlink.com 1.10,2013-02-16 09:09:00,
2013-02-16 01:24:00,44.0,11.0,30.30,East,94,16.0,24.0,26,0.00,,,0.00,weatherlink.com 1.10,2013-02-16 09:24:00,
2013-02-16 01:39:00,44.3,10.0,30.30,NW,323,10.0,19.0,25,0.00,,,0.00,weatherlink.com 1.10,2013-02-16 09:39:00,
2013-02-16 01:54:00,44.2,10.0,30.29,North,5,13.0,25.0,25,0.00,,,0.00,weatherlink.com 1.10,2013-02-16 09:54:00,
2013-02-16 02:09:00,43.6,11.0,30.29,ENE,78,20.0,20.0,26,0.00,,,0.00,weatherlink.com 1.10,2013-02-16 10:09:00,
2013-02-16 02:24:00,43.8,11.0,30.28,North,5,10.0,17.0,26,0.00,,,0.00,weatherlink.com 1.10,2013-02-16 10:24:00,
2013-02-16 02:39:00,44.2,11.0,30.28,ENE,57,11.0,21.0,26,0.00,,,0.00,weatherlink.com 1.10,2013-02-16 10:39:00,
2013-02-16 02:54:00,45.0,12.0,30.27,NE,46,9.0,20.0,26,0.00,,,0.00,weatherlink.com 1.10,2013-02-16 10:54:00,
2013-02-16 03:09:00,45.5,11.0,30.27,NNE,22,9.0,22.0,25,0.00,,,0.00,weatherlink.com 1.10,2013-02-16 11:09:00,
2013-02-16 03:24:00,45.2,11.0,30.27,NNE,23,8.0,25.0,25,0.00,,,0.00,weatherlink.com 1.10,2013-02-16 11:24:00,
2013-02-16 03:39:00,45.1,11.0,30.27,ENE,61,12.0,25.0,25,0.00,,,0.00,weatherlink.com 1.10,2013-02-16 11:39:00,
2013-02-16 03:54:00,44.6,12.0,30.27,NE,34,12.0,22.0,27,0.00,,,0.00,weatherlink.com 1.10,2013-02-16 11:54:00,
2013-02-16 04:09:00,44.3,12.0,30.27,NE,40,11.0,24.0,27,0.00,,,0.00,weatherlink.com 1.10,2013-02-16 12:09:00,
2013-02-16 04:24:00,44.2,12.0,30.27,ENE,61,10.0,21.0,27,0.00,,,0.00,weatherlink.com 1.10,2013-02-16 12:24:00,
2013-02-16 04:39:00,43.9,12.0,30.27,NE,41,7.0,16.0,27,0.00,,,0.00,weatherlink.com 1.10,2013-02-16 12:39:00,
2013-02-16 04:55:00,43.8,12.0,30.28,NE,38,5.0,19.0,28,0.00,,,0.00,weatherlink.com 1.10,2013-02-16 12:55:00,
2013-02-16 05:10:00,43.2,12.0,30.28,ENE,58,9.0,18.0,28,0.00,,,0.00,weatherlink.com 1.10,2013-02-16 13:10:00,
2013-02-16 05:25:00,42.7,12.0,30.28,NE,44,9.0,21.0,28,0.00,,,0.00,weatherlink.com 1.10,2013-02-16 13:25:00,
2013-02-16 05:40:00,42.2,12.0,30.28,ENE,59,3.0,16.0,29,0.00,,,0.00,weatherlink.com 1.10,2013-02-16 13:40:00,
2013-02-16 05:55:00,41.5,12.0,30.28,North,355,7.0,12.0,30,0.00,,,0.00,weatherlink.com 1.10,2013-02-16 13:55:00,
2013-02-16 06:10:00,41.5,13.0,30.28,NE,36,5.0,14.0,31,0.00,,,0.00,weatherlink.com 1.10,2013-02-16 14:10:00,
2013-02-16 06:25:00,41.8,13.0,30.29,East,88,7.0,17.0,31,0.00,,,0.00,weatherlink.com 1.10,2013-02-16 14:25:00,
2013-02-16 06:40:00,41.8,13.0,30.28,NE,38,8.0,16.0,31,0.00,,,0.00,weatherlink.com 1.10,2013-02-16 14:40:00,
2013-02-16 06:55:00,41.6,13.0,30.28,North,360,7.0,16.0,31,0.00,,,0.00,weatherlink.com 1.10,2013-02-16 14:55:00,
2013-02-16 07:10:00,42.4,14.0,30.29,NNE,12,10.0,13.0,31,0.00,,,0.00,weatherlink.com 1.10,2013-02-16 15:10:00,
2013-02-16 07:25:00,44.2,13.0,30.29,NNE,13,8.0,16.0,28,0.00,,,0.00,weatherlink.com 1.10,2013-02-16 15:25:00,
2013-02-16 07:40:00,45.4,14.0,30.29,ENE,65,8.0,16.0,28,0.00,,,0.00,weatherlink.com 1.10,2013-02-16 15:40:00,
2013-02-16 07:55:00,47.2,13.0,30.29,NE,50,4.0,15.0,25,0.00,,,0.00,weatherlink.com 1.10,2013-02-16 15:55:00,
2013-02-16 08:10:00,48.5,11.0,30.29,NE,53,11.0,13.0,22,0.00,,,0.00,weatherlink.com 1.10,2013-02-16 16:10:00,
2013-02-16 08:25:00,49.5,11.0,30.29,ENE,58,5.0,14.0,21,0.00,,,0.00,weatherlink.com 1.10,2013-02-16 16:25:00,
2013-02-16 08:40:00,49.9,9.0,30.29,NE,56,4.0,19.0,19,0.00,,,0.00,weatherlink.com 1.10,2013-02-16 16:40:00,
2013-02-16 08:55:00,50.1,10.0,30.29,NE,51,8.0,19.0,20,0.00,,,0.00,weatherlink.com 1.10,2013-02-16 16:55:00,
2013-02-16 09:10:00,50.7,11.0,30.29,NNE,16,4.0,17.0,20,0.00,,,0.00,weatherlink.com 1.10,2013-02-16 17:10:00,
2013-02-16 09:25:00,51.9,12.0,30.29,ENE,59,5.0,15.0,20,0.00,,,0.00,weatherlink.com 1.10,2013-02-16 17:25:00,
2013-02-16 09:40:00,52.4,9.0,30.29,ESE,112,1.0,19.0,17,0.00,,,0.00,weatherlink.com 1.10,2013-02-16 17:40:00,
2013-02-16 09:55:00,52.3,11.0,30.29,NNE,30,4.0,17.0,19,0.00,,,0.00,weatherlink.com 1.10,2013-02-16 17:55:00,
2013-02-16 10:10:00,52.7,11.0,30.28,ENE,57,8.0,14.0,19,0.00,,,0.00,weatherlink.com 1.10,2013-02-16 18:10:00,
2013-02-16 10:25:00,53.6,12.0,30.28,ESE,102,4.0,14.0,19,0.00,,,0.00,weatherlink.com 1.10,2013-02-16 18:25:00,
2013-02-16 10:40:00,53.3,8.0,30.27,ENE,78,9.0,16.0,16,0.00,,,0.00,weatherlink.com 1.10,2013-02-16 18:40:00,
2013-02-16 10:55:00,53.2,9.0,30.27,ENE,61,4.0,15.0,17,0.00,,,0.00,weatherlink.com 1.10,2013-02-16 18:55:00,
2013-02-16 11:10:00,52.9,9.0,30.26,NNE,23,9.0,15.0,17,0.00,,,0.00,weatherlink.com 1.10,2013-02-16 19:10:00,
2013-02-16 11:25:00,53.9,10.0,30.25,ESE,105,8.0,13.0,17,0.00,,,0.00,weatherlink.com 1.10,2013-02-16 19:25:00,
2013-02-16 11:40:00,54.9,8.0,30.24,NE,50,8.0,15.0,15,0.00,,,0.00,weatherlink.com 1.10,2013-02-16 19:40:00,
2013-02-16 11:55:00,55.8,9.0,30.23,ENE,63,4.0,16.0,15,0.00,,,0.00,weatherlink.com 1.10,2013-02-16 19:55:00,
2013-02-16 12:10:00,56.4,9.0,30.22,North,11,8.0,13.0,15,0.00,,,0.00,weatherlink.com 1.10,2013-02-16 20:10:00,
2013-02-16 12:25:00,55.9,9.0,30.21,NE,44,5.0,13.0,15,0.00,,,0.00,weatherlink.com 1.10,2013-02-16 20:25:00,
2013-02-16 12:41:00,56.7,9.0,30.20,ENE,76,10.0,13.0,15,0.00,,,0.00,weatherlink.com 1.10,2013-02-16 20:41:00,
2013-02-16 12:56:00,57.0,10.0,30.19,ENE,78,5.0,13.0,15,0.00,,,0.00,weatherlink.com 1.10,2013-02-16 20:56:00,
2013-02-16 13:11:00,56.4,6.0,30.19,ENE,65,4.0,15.0,13,0.00,,,0.00,weatherlink.com 1.10,2013-02-16 21:11:00,
2013-02-16 13:26:00,56.5,8.0,30.18,ESE,104,5.0,10.0,14,0.00,,,0.00,weatherlink.com 1.10,2013-02-16 21:26:00,
2013-02-16 13:41:00,57.2,5.0,30.17,East,84,8.0,13.0,12,0.00,,,0.00,weatherlink.com 1.10,2013-02-16 21:41:00,
2013-02-16 13:56:00,57.5,5.0,30.16,ESE,107,3.0,10.0,12,0.00,,,0.00,weatherlink.com 1.10,2013-02-16 21:56:00,
2013-02-16 14:11:00,56.7,6.0,30.15,ENE,69,4.0,11.0,13,0.00,,,0.00,weatherlink.com 1.10,2013-02-16 22:11:00,
2013-02-16 14:26:00,56.8,4.0,30.15,ENE,76,9.0,16.0,12,0.00,,,0.00,weatherlink.com 1.10,2013-02-16 22:26:00,
2013-02-16 14:41:00,56.8,4.0,30.14,East,94,7.0,11.0,12,0.00,,,0.00,weatherlink.com 1.10,2013-02-16 22:41:00,
2013-02-16 14:56:00,57.1,5.0,30.13,East,90,7.0,11.0,12,0.00,,,0.00,weatherlink.com 1.10,2013-02-16 22:56:00,
2013-02-16 15:11:00,56.9,1.0,30.13,ESE,118,4.0,9.0,10,0.00,,,0.00,weatherlink.com 1.10,2013-02-16 23:11:00,
2013-02-16 15:26:00,56.8,-2.0,30.12,ENE,65,4.0,10.0,9,0.00,,,0.00,weatherlink.com 1.10,2013-02-16 23:26:00,
2013-02-16 15:41:00,56.6,0.0,30.12,East,85,5.0,9.0,10,0.00,,,0.00,weatherlink.com 1.10,2013-02-16 23:41:00,
2013-02-16 15:56:00,56.2,0.0,30.11,ENE,63,8.0,11.0,10,0.00,,,0.00,weatherlink.com 1.10,2013-02-16 23:56:00,
2013-02-16 16:11:00,56.0,-3.0,30.11,East,84,5.0,9.0,9,0.00,,,0.00,weatherlink.com 1.10,2013-02-17 00:11:00,
2013-02-16 16:26:00,56.0,-8.0,30.11,ENE,73,3.0,8.0,7,0.00,,,0.00,weatherlink.com 1.10,2013-02-17 00:26:00,
2013-02-16 16:41:00,55.9,-5.0,30.10,East,80,6.0,7.0,8,0.00,,,0.00,weatherlink.com 1.10,2013-02-17 00:41:00,
2013-02-16 16:56:00,55.3,-1.0,30.10,East,79,0.0,4.0,10,0.00,,,0.00,weatherlink.com 1.10,2013-02-17 00:56:00,
2013-02-16 17:11:00,53.1,3.0,30.10,ENE,78,4.0,4.0,13,0.00,,,0.00,weatherlink.com 1.10,2013-02-17 01:11:00,
2013-02-16 17:26:00,45.5,7.0,30.09,ENE,78,3.0,4.0,21,0.00,,,0.00,weatherlink.com 1.10,2013-02-17 01:26:00,
2013-02-16 17:42:00,39.6,6.0,30.10,ENE,78,0.0,4.0,25,0.00,,,0.00,weatherlink.com 1.10,2013-02-17 01:42:00,
2013-02-16 17:57:00,35.5,6.0,30.10,ENE,78,3.0,4.0,29,0.00,,,0.00,weatherlink.com 1.10,2013-02-17 01:57:00,
2013-02-16 18:12:00,33.1,8.0,30.10,ENE,78,3.0,4.0,35,0.00,,,0.00,weatherlink.com 1.10,2013-02-17 02:12:00,
2013-02-16 18:27:00,33.2,12.0,30.10,ENE,78,2.0,4.0,42,0.00,,,0.00,weatherlink.com 1.10,2013-02-17 02:27:00,
2013-02-16 18:42:00,36.5,17.0,30.10,ENE,78,2.0,4.0,45,0.00,,,0.00,weatherlink.com 1.10,2013-02-17 02:42:00,
2013-02-16 18:57:00,37.7,17.0,30.10,ENE,78,2.0,4.0,43,0.00,,,0.00,weatherlink.com 1.10,2013-02-17 02:57:00,
2013-02-16 19:12:00,37.5,18.0,30.10,ENE,76,3.0,5.0,45,0.00,,,0.00,weatherlink.com 1.10,2013-02-17 03:12:00,
2013-02-16 19:27:00,37.5,19.0,30.10,ENE,65,2.0,7.0,47,0.00,,,0.00,weatherlink.com 1.10,2013-02-17 03:27:00,
2013-02-16 19:42:00,36.0,18.0,30.09,ENE,65,3.0,4.0,48,0.00,,,0.00,weatherlink.com 1.10,2013-02-17 03:42:00,
2013-02-16 19:57:00,34.9,18.0,30.09,ENE,65,3.0,4.0,50,0.00,,,0.00,weatherlink.com 1.10,2013-02-17 03:57:00,
2013-02-16 20:12:00,33.1,17.0,30.09,ENE,65,2.0,4.0,53,0.00,,,0.00,weatherlink.com 1.10,2013-02-17 04:12:00,
2013-02-16 20:27:00,32.7,18.0,30.09,ENE,65,3.0,4.0,54,0.00,,,0.00,weatherlink.com 1.10,2013-02-17 04:27:00,
2013-02-16 20:42:00,32.0,17.0,30.10,ENE,65,4.0,4.0,55,0.00,,,0.00,weatherlink.com 1.10,2013-02-17 04:42:00,
2013-02-16 20:57:00,31.8,17.0,30.10,ENE,65,2.0,4.0,55,0.00,,,0.00,weatherlink.com 1.10,2013-02-17 04:57:00,
2013-02-16 21:13:00,32.2,17.0,30.10,ENE,65,3.0,4.0,53,0.00,,,0.00,weatherlink.com 1.10,2013-02-17 05:13:00,
2013-02-16 21:28:00,32.9,15.0,30.10,ENE,65,3.0,4.0,49,0.00,,,0.00,weatherlink.com 1.10,2013-02-17 05:28:00,
2013-02-16 21:43:00,34.0,15.0,30.10,ENE,65,3.0,4.0,46,0.00,,,0.00,weatherlink.com 1.10,2013-02-17 05:43:00,
2013-02-16 21:58:00,34.4,15.0,30.09,ENE,65,3.0,4.0,45,0.00,,,0.00,weatherlink.com 1.10,2013-02-17 05:58:00,
2013-02-16 22:13:00,34.7,15.0,30.09,ENE,65,4.0,4.0,44,0.00,,,0.00,weatherlink.com 1.10,2013-02-17 06:13:00,
2013-02-16 22:28:00,34.8,15.0,30.09,ENE,65,3.0,4.0,44,0.00,,,0.00,weatherlink.com 1.10,2013-02-17 06:28:00,
2013-02-16 22:43:00,35.9,15.0,30.09,ENE,65,2.0,4.0,42,0.00,,,0.00,weatherlink.com 1.10,2013-02-17 06:43:00,
2013-02-16 22:58:00,37.1,14.0,30.08,ENE,65,2.0,5.0,39,0.00,,,0.00,weatherlink.com 1.10,2013-02-17 06:58:00,
2013-02-16 23:13:00,38.4,14.0,30.08,NE,39,3.0,6.0,37,0.00,,,0.00,weatherlink.com 1.10,2013-02-17 07:13:00,
2013-02-16 23:28:00,38.4,14.0,30.07,NE,39,3.0,5.0,37,0.00,,,0.00,weatherlink.com 1.10,2013-02-17 07:28:00,
2013-02-16 23:43:00,38.3,13.0,30.07,NE,39,2.0,5.0,36,0.00,,,0.00,weatherlink.com 1.10,2013-02-17 07:43:00,
2013-02-16 23:58:00,39.0,11.0,30.07,NE,39,2.0,4.0,32,0.00,,,0.00,weatherlink.com 1.10,2013-02-17 07:58:00,